Time;durP1;ratioP1;P1;durP2;ratioP2;P2;SDS_P1;SDS_P2;PMS_P1;PMS_P2;Temp;Humidity;BMP_temperature;BMP_pressure;BME280_temperature;BME280_humidity;BME280_pressure;Samples;Min_cycle;Max_cycle;Signal;HPM_P1;HPM_P2
2022/08/22 00:02:05;;;;;;;9.80;3.77;;;18.00;99.90;;;;;;6068220;23;20165;-63
2022/08/22 00:04:43;;;;;;;6.07;4.00;;;18.00;99.90;;;;;;6043312;23;20175;-62
2022/08/22 00:07:21;;;;;;;6.83;3.63;;;18.00;99.90;;;;;;6068347;23;20250;-62
2022/08/22 00:09:59;;;;;;;8.57;3.43;;;17.90;99.90;;;;;;6068921;23;20208;-62
2022/08/22 00:12:35;;;;;;;7.97;3.90;;;17.90;99.90;;;;;;6068167;23;20195;-62
2022/08/22 00:15:10;;;;;;;8.53;3.77;;;17.90;99.90;;;;;;6043242;23;20163;-62
2022/08/22 00:18:06;;;;;;;7.77;3.93;;;17.90;99.90;;;;;;6019381;23;20199;-62
2022/08/22 00:20:42;;;;;;;9.20;3.97;;;17.90;99.90;;;;;;6068549;23;20168;-63
2022/08/22 00:23:18;;;;;;;6.03;4.00;;;17.80;99.90;;;;;;6068123;23;20168;-62
2022/08/22 00:25:53;;;;;;;6.87;3.60;;;17.80;99.90;;;;;;6068579;23;20290;-62
2022/08/22 00:28:29;;;;;;;11.10;4.23;;;17.70;99.90;;;;;;6043334;23;20212;-62
2022/08/22 00:31:01;;;;;;;6.73;3.70;;;17.70;99.90;;;;;;6068538;23;20195;-62
2022/08/22 00:33:39;;;;;;;8.70;3.70;;;17.70;99.90;;;;;;6042989;23;20271;-62
2022/08/22 00:36:18;;;;;;;9.23;3.90;;;17.70;99.90;;;;;;6043141;23;20587;-62
2022/08/22 00:38:54;;;;;;;7.93;4.20;;;17.70;99.90;;;;;;6067976;23;20657;-62
2022/08/22 00:41:34;;;;;;;10.40;4.03;;;17.70;99.90;;;;;;6068061;23;20199;-63
2022/08/22 00:44:33;;;;;;;10.60;4.33;;;17.70;99.90;;;;;;6043064;23;20176;-63
2022/08/22 00:47:18;;;;;;;12.33;4.13;;;17.60;99.90;;;;;;6068544;23;20256;-63
2022/08/22 00:50:06;;;;;;;8.50;3.87;;;17.60;99.90;;;;;;6068403;23;20168;-63
2022/08/22 00:52:57;;;;;;;5.23;3.93;;;17.60;99.90;;;;;;6043285;23;20267;-63
2022/08/22 00:56:02;;;;;;;8.93;3.80;;;17.60;99.90;;;;;;6068448;23;20220;-63
2022/08/22 00:59:10;;;;;;;13.30;4.73;;;17.70;99.90;;;;;;6050487;23;20168;-63
2022/08/22 01:02:03;;;;;;;8.93;3.90;;;17.70;99.90;;;;;;6067959;23;20164;-63
2022/08/22 01:04:48;;;;;;;9.87;3.93;;;17.70;99.90;;;;;;6042500;23;20260;-62
2022/08/22 01:07:32;;;;;;;6.13;3.73;;;17.70;99.90;;;;;;6067663;23;20603;-63
2022/08/22 01:10:23;;;;;;;11.13;3.83;;;17.70;99.90;;;;;;6068004;23;20664;-62
2022/08/22 01:13:15;;;;;;;6.17;3.60;;;17.70;99.90;;;;;;6067954;23;20281;-62
2022/08/22 01:15:44;;;;;;;9.27;4.00;;;17.70;99.90;;;;;;6067540;23;20207;-62
2022/08/22 01:18:55;;;;;;;10.80;3.57;;;17.70;99.90;;;;;;6068275;23;20254;-63
2022/08/22 01:22:05;;;;;;;6.70;3.67;;;17.70;99.90;;;;;;6068407;23;20172;-62
2022/08/22 01:25:20;;;;;;;10.90;3.87;;;17.70;99.90;;;;;;6042085;23;20180;-62
2022/08/22 01:28:36;;;;;;;7.33;4.13;;;17.70;99.90;;;;;;6041778;23;20541;-63
2022/08/22 01:31:53;;;;;;;8.67;3.60;;;17.70;99.90;;;;;;6006890;23;20262;-63
2022/08/22 01:34:53;;;;;;;9.63;4.03;;;17.70;99.90;;;;;;6067911;23;20236;-63
2022/08/22 01:37:52;;;;;;;9.87;3.90;;;17.70;99.90;;;;;;6067728;23;20244;-63
2022/08/22 01:40:57;;;;;;;7.67;3.60;;;17.70;99.90;;;;;;6042701;23;20624;-62
2022/08/22 01:43:43;;;;;;;9.70;3.73;;;17.70;99.90;;;;;;6067887;23;20188;-63
2022/08/22 01:46:37;;;;;;;8.87;3.63;;;17.60;99.90;;;;;;6042132;23;20198;-63
2022/08/22 01:49:14;;;;;;;7.80;3.70;;;17.60;99.90;;;;;;6068147;23;20251;-62
2022/08/22 01:51:50;;;;;;;7.17;3.53;;;17.60;99.90;;;;;;6067783;23;20247;-62
2022/08/22 01:54:34;;;;;;;10.47;3.70;;;17.60;99.90;;;;;;6067758;23;20557;-62
2022/08/22 01:57:07;;;;;;;7.57;4.03;;;17.60;99.90;;;;;;6042170;23;20729;-63
2022/08/22 01:59:38;;;;;;;10.53;4.10;;;17.60;99.90;;;;;;6067394;23;20172;-63
2022/08/22 02:02:41;;;;;;;6.60;3.60;;;17.60;99.90;;;;;;6067752;23;20220;-63
2022/08/22 02:05:21;;;;;;;5.63;3.47;;;17.70;99.90;;;;;;6067860;23;20167;-63
2022/08/22 02:07:58;;;;;;;8.40;3.90;;;17.70;99.90;;;;;;6067773;23;20251;-62
2022/08/22 02:10:43;;;;;;;7.27;3.67;;;17.70;99.90;;;;;;6067473;23;20617;-63
2022/08/22 02:13:27;;;;;;;11.43;3.90;;;17.60;99.90;;;;;;6067448;23;20284;-63
2022/08/22 02:16:08;;;;;;;8.63;3.80;;;17.60;99.90;;;;;;6042151;23;20192;-62
2022/08/22 02:19:19;;;;;;;6.53;3.97;;;17.60;99.90;;;;;;6067558;23;20178;-63
2022/08/22 02:21:54;;;;;;;6.50;4.00;;;17.60;99.90;;;;;;6067396;23;20244;-63
2022/08/22 02:24:34;;;;;;;7.73;3.87;;;17.60;99.90;;;;;;6067361;23;20661;-62
2022/08/22 02:27:15;;;;;;;7.27;3.40;;;17.60;99.90;;;;;;6067407;23;20249;-62
2022/08/22 02:29:52;;;;;;;6.37;3.70;;;17.60;99.90;;;;;;6067364;23;20191;-62
2022/08/22 02:32:28;;;;;;;10.70;4.10;;;17.60;99.90;;;;;;6067465;23;20200;-63
2022/08/22 02:35:04;;;;;;;9.33;4.10;;;17.60;99.90;;;;;;6067283;23;20624;-63
2022/08/22 02:37:40;;;;;;;11.57;4.20;;;17.50;99.90;;;;;;6065847;23;20263;-62
2022/08/22 02:40:16;;;;;;;6.97;3.80;;;17.50;99.90;;;;;;6067188;23;20187;-62
2022/08/22 02:42:55;;;;;;;7.80;4.00;;;17.50;99.90;;;;;;6068018;23;20170;-62
2022/08/22 02:45:30;;;;;;;11.50;4.40;;;17.60;99.90;;;;;;6067640;23;20262;-62
2022/08/22 02:48:05;;;;;;;10.27;4.50;;;17.50;99.90;;;;;;6042696;23;20160;-63
2022/08/22 02:50:41;;;;;;;8.87;3.87;;;17.50;99.90;;;;;;6067767;23;20481;-62
2022/08/22 02:53:14;;;;;;;7.20;3.67;;;17.50;99.90;;;;;;6067839;23;20225;-62
2022/08/22 02:55:52;;;;;;;13.73;4.00;;;17.50;99.90;;;;;;6067843;23;20210;-62
2022/08/22 02:58:28;;;;;;;8.50;3.87;;;17.50;99.90;;;;;;6067826;23;20164;-62
2022/08/22 03:01:20;;;;;;;7.33;3.63;;;17.50;99.90;;;;;;6067602;23;20239;-62
2022/08/22 03:03:50;;;;;;;6.73;3.70;;;17.50;99.90;;;;;;6067642;23;20230;-62
2022/08/22 03:06:39;;;;;;;9.63;4.00;;;17.50;99.90;;;;;;6067800;23;20669;-62
2022/08/22 03:09:23;;;;;;;9.53;4.00;;;17.50;99.90;;;;;;6067947;23;20167;-63
2022/08/22 03:12:13;;;;;;;6.40;4.10;;;17.50;99.90;;;;;;6042482;23;20176;-62
2022/08/22 03:14:47;;;;;;;4.77;3.60;;;17.50;99.90;;;;;;6067614;23;20742;-63
2022/08/22 03:17:23;;;;;;;8.00;4.37;;;17.50;99.90;;;;;;6067741;23;20190;-63
2022/08/22 03:19:59;;;;;;;9.63;4.40;;;17.50;99.90;;;;;;6067973;23;20235;-63
2022/08/22 03:22:36;;;;;;;7.13;4.00;;;17.50;99.90;;;;;;6067775;23;20198;-63
2022/08/22 03:25:12;;;;;;;9.47;4.20;;;17.50;99.90;;;;;;6042368;23;20731;-63
2022/08/22 03:27:45;;;;;;;8.50;4.20;;;17.40;99.90;;;;;;6068010;23;20250;-63
2022/08/22 03:30:20;;;;;;;11.47;4.40;;;17.40;99.90;;;;;;6068830;23;20168;-62
2022/08/22 03:32:52;;;;;;;8.97;5.00;;;17.40;99.90;;;;;;6044281;23;20188;-63
2022/08/22 03:35:33;;;;;;;7.20;4.50;;;17.40;99.90;;;;;;6069910;23;20168;-63
2022/08/22 03:38:24;;;;;;;14.20;4.63;;;17.40;99.90;;;;;;6069693;23;20172;-63
2022/08/22 03:41:16;;;;;;;10.47;4.60;;;17.40;99.90;;;;;;6020735;23;20255;-63
2022/08/22 03:44:35;;;;;;;11.73;5.13;;;17.40;99.90;;;;;;6069613;23;20184;-62
2022/08/22 03:47:44;;;;;;;16.00;4.40;;;17.40;99.90;;;;;;5962083;23;20219;-62
2022/08/22 03:50:47;;;;;;;13.80;4.83;;;17.40;99.90;;;;;;6069333;23;20251;-63
2022/08/22 03:53:37;;;;;;;8.53;4.40;;;17.30;99.90;;;;;;6034719;23;20561;-63
2022/08/22 03:56:25;;;;;;;5.10;4.10;;;17.30;99.90;;;;;;6044344;23;20192;-62
2022/08/22 03:59:23;;;;;;;11.73;4.17;;;17.30;99.90;;;;;;6069447;23;20252;-62
2022/08/22 04:02:13;;;;;;;9.83;4.53;;;17.30;99.90;;;;;;6043756;23;20177;-63
2022/08/22 04:05:55;;;;;;;8.70;4.20;;;17.30;99.90;;;;;;6044290;23;20163;-63
2022/08/22 04:08:54;;;;;;;8.67;5.10;;;17.30;99.90;;;;;;6060851;23;20199;-62
2022/08/22 04:11:43;;;;;;;11.20;4.83;;;17.30;99.90;;;;;;6022614;23;20200;-62
2022/08/22 04:14:53;;;;;;;9.87;5.40;;;17.30;99.90;;;;;;6043951;23;20190;-62
2022/08/22 04:17:35;;;;;;;12.97;5.20;;;17.30;99.90;;;;;;6003133;23;20253;-62
2022/08/22 04:20:20;;;;;;;8.77;5.00;;;17.30;99.90;;;;;;6043776;23;20511;-62
2022/08/22 04:23:03;;;;;;;7.97;4.67;;;17.30;99.90;;;;;;6009943;23;20259;-62
2022/08/22 04:25:37;;;;;;;9.27;4.90;;;17.30;99.90;;;;;;6069128;23;20221;-62
2022/08/22 04:28:11;;;;;;;9.17;4.90;;;17.30;99.90;;;;;;6043447;23;20275;-63
2022/08/22 04:30:45;;;;;;;12.67;5.53;;;17.30;99.90;;;;;;6043688;23;20489;-64
2022/08/22 04:33:20;;;;;;;10.87;5.00;;;17.30;99.90;;;;;;6069013;23;20164;-63
2022/08/22 04:36:00;;;;;;;8.47;4.80;;;17.30;99.90;;;;;;6069052;23;20199;-62
2022/08/22 04:38:33;;;;;;;10.87;4.83;;;17.30;99.90;;;;;;6069173;23;20251;-63
2022/08/22 04:41:07;;;;;;;11.43;5.20;;;17.30;99.90;;;;;;6068468;23;20243;-62
2022/08/22 04:43:41;;;;;;;10.07;5.30;;;17.40;99.90;;;;;;6069133;23;20231;-62
2022/08/22 04:46:15;;;;;;;10.73;5.10;;;17.40;99.90;;;;;;6068866;23;20315;-63
2022/08/22 04:48:52;;;;;;;6.73;4.53;;;17.40;99.90;;;;;;6068748;23;20550;-62
2022/08/22 04:51:26;;;;;;;7.90;4.50;;;17.30;99.90;;;;;;6069146;23;20175;-63
2022/08/22 04:54:13;;;;;;;11.80;5.20;;;17.30;99.90;;;;;;6069049;23;20276;-62
2022/08/22 04:56:50;;;;;;;10.57;4.77;;;17.30;99.90;;;;;;6068980;23;20673;-63
2022/08/22 04:59:19;;;;;;;7.23;4.80;;;17.30;99.90;;;;;;6068774;23;20199;-63
2022/08/22 05:01:57;;;;;;;12.17;5.30;;;17.40;99.90;;;;;;6068814;23;20244;-62
2022/08/22 05:04:30;;;;;;;10.53;4.43;;;17.40;99.90;;;;;;6043157;23;20176;-63
2022/08/22 05:07:07;;;;;;;15.03;5.07;;;17.40;99.90;;;;;;6067662;23;20246;-62
2022/08/22 05:09:41;;;;;;;7.60;4.90;;;17.50;99.90;;;;;;6068027;23;20247;-63
2022/08/22 05:12:19;;;;;;;9.67;4.73;;;17.50;99.90;;;;;;6067727;23;20204;-63
2022/08/22 05:14:52;;;;;;;9.57;4.90;;;17.50;99.90;;;;;;6068567;23;20267;-62
2022/08/22 05:17:26;;;;;;;12.27;4.90;;;17.50;99.90;;;;;;6043629;23;20167;-62
2022/08/22 05:20:00;;;;;;;13.13;4.73;;;17.50;99.90;;;;;;6043363;23;20667;-62
2022/08/22 05:22:32;;;;;;;7.93;4.63;;;17.50;99.90;;;;;;6068266;23;20267;-62
2022/08/22 05:25:05;;;;;;;14.43;5.13;;;17.50;99.90;;;;;;6068500;23;20271;-63
2022/08/22 05:27:40;;;;;;;12.40;5.40;;;17.50;99.90;;;;;;6068693;23;20160;-62
2022/08/22 05:30:14;;;;;;;10.70;5.67;;;17.50;99.90;;;;;;6068708;23;20220;-62
2022/08/22 05:32:50;;;;;;;8.30;5.30;;;17.50;99.90;;;;;;6068351;23;20247;-62
2022/08/22 05:35:29;;;;;;;8.93;5.27;;;17.50;99.90;;;;;;6068606;23;20185;-63
2022/08/22 05:37:59;;;;;;;10.40;5.07;;;17.50;99.90;;;;;;6068063;23;20760;-63
2022/08/22 05:40:30;;;;;;;11.70;5.00;;;17.60;99.90;;;;;;6068972;23;20179;-63
2022/08/22 05:42:58;;;;;;;9.43;5.17;;;17.70;99.90;;;;;;6043381;23;20168;-62
2022/08/22 05:45:29;;;;;;;10.00;4.80;;;17.70;99.90;;;;;;6068692;23;20259;-63
2022/08/22 05:48:03;;;;;;;8.83;4.90;;;17.70;99.90;;;;;;6068533;23;20199;-62
2022/08/22 05:50:38;;;;;;;7.73;4.43;;;17.70;99.90;;;;;;6068447;23;20195;-63
2022/08/22 05:53:13;;;;;;;9.90;4.77;;;17.80;99.90;;;;;;6068303;23;20163;-63
2022/08/22 05:55:55;;;;;;;8.83;4.83;;;17.90;99.90;;;;;;6068509;23;20179;-62
2022/08/22 05:58:41;;;;;;;10.03;4.47;;;17.90;99.90;;;;;;6068632;23;20235;-63
2022/08/22 06:01:20;;;;;;;12.23;4.80;;;18.00;99.90;;;;;;6043158;23;20251;-63
2022/08/22 06:03:58;;;;;;;12.20;5.10;;;18.00;99.90;;;;;;6068266;23;20167;-63
2022/08/22 06:06:32;;;;;;;14.17;5.23;;;18.10;99.90;;;;;;6068678;23;20198;-62
2022/08/22 06:09:04;;;;;;;7.47;4.80;;;18.10;99.90;;;;;;6068262;23;20232;-63
2022/08/22 06:11:40;;;;;;;15.60;5.73;;;18.20;99.90;;;;;;6068486;23;20247;-62
2022/08/22 06:14:27;;;;;;;10.27;4.70;;;18.30;99.90;;;;;;6068147;23;20179;-63
2022/08/22 06:17:02;;;;;;;14.63;5.37;;;18.30;99.90;;;;;;6068424;23;20203;-62
2022/08/22 06:19:35;;;;;;;13.70;5.07;;;18.40;99.90;;;;;;6067923;23;20195;-63
2022/08/22 06:22:06;;;;;;;10.53;4.73;;;18.50;99.90;;;;;;6043039;23;20239;-63
2022/08/22 06:24:37;;;;;;;9.33;4.67;;;18.60;99.90;;;;;;6019357;23;20254;-62
2022/08/22 06:27:10;;;;;;;8.87;4.87;;;18.70;99.90;;;;;;6068868;23;20247;-63
2022/08/22 06:29:41;;;;;;;9.33;4.50;;;18.80;99.90;;;;;;6068321;23;20194;-63
2022/08/22 06:32:13;;;;;;;16.40;5.17;;;18.90;99.90;;;;;;6042584;23;20168;-63
2022/08/22 06:34:45;;;;;;;12.00;5.10;;;19.00;99.90;;;;;;6068316;23;20267;-62
2022/08/22 06:37:19;;;;;;;13.30;4.87;;;19.00;99.90;;;;;;6066608;23;20295;-62
2022/08/22 06:39:51;;;;;;;9.73;5.33;;;19.00;99.90;;;;;;6068398;23;20191;-62
2022/08/22 06:42:24;;;;;;;11.00;4.50;;;19.00;99.90;;;;;;6068165;23;20173;-62
2022/08/22 06:44:57;;;;;;;9.57;4.90;;;19.00;99.90;;;;;;6068528;23;20773;-62
2022/08/22 06:47:29;;;;;;;11.30;5.80;;;19.00;99.90;;;;;;6043226;23;20255;-62
2022/08/22 06:50:01;;;;;;;10.87;4.97;;;19.00;99.90;;;;;;6068283;23;20539;-62
2022/08/22 06:52:34;;;;;;;13.13;5.47;;;19.00;99.90;;;;;;6068618;23;20535;-62
2022/08/22 06:55:07;;;;;;;10.47;5.17;;;19.00;99.90;;;;;;6042829;23;20188;-63
2022/08/22 06:57:42;;;;;;;11.87;4.70;;;18.90;99.90;;;;;;6042815;23;20164;-63
2022/08/22 07:00:15;;;;;;;12.10;5.33;;;18.90;99.90;;;;;;6067702;23;20263;-63
2022/08/22 07:02:46;;;;;;;12.67;5.63;;;18.90;99.90;;;;;;6067592;23;20196;-63
2022/08/22 07:05:20;;;;;;;12.57;4.90;;;18.90;99.90;;;;;;6067104;23;20187;-63
2022/08/22 07:07:51;;;;;;;12.57;5.73;;;19.00;99.90;;;;;;6068026;23;20187;-63
2022/08/22 07:10:59;;;;;;;10.67;5.27;;;19.00;99.90;;;;;;6068345;23;20183;-63
2022/08/22 07:13:32;;;;;;;12.20;5.73;;;19.00;99.90;;;;;;6068016;23;20168;-62
2022/08/22 07:16:08;;;;;;;11.57;5.17;;;19.10;99.90;;;;;;6066616;23;20506;-62
2022/08/22 07:18:47;;;;;;;10.73;5.30;;;19.20;99.90;;;;;;6068194;23;20608;-62
2022/08/22 07:21:24;;;;;;;14.17;5.60;;;19.30;99.90;;;;;;6043131;23;20525;-63
2022/08/22 07:23:59;;;;;;;10.37;5.10;;;19.40;99.90;;;;;;6068180;23;20541;-63
2022/08/22 07:26:33;;;;;;;13.47;5.60;;;19.40;99.90;;;;;;6042439;23;20247;-63
2022/08/22 07:29:09;;;;;;;10.73;5.33;;;19.40;99.90;;;;;;6067538;23;20219;-63
2022/08/22 07:31:47;;;;;;;13.47;5.67;;;19.50;99.90;;;;;;6068039;23;20485;-63
2022/08/22 07:34:34;;;;;;;12.97;5.30;;;19.50;99.90;;;;;;6067985;23;20200;-63
2022/08/22 07:37:07;;;;;;;9.23;5.03;;;19.60;99.90;;;;;;6068072;23;20208;-63
2022/08/22 07:39:45;;;;;;;8.77;5.00;;;19.60;99.90;;;;;;6042402;23;20199;-62
2022/08/22 07:42:17;;;;;;;11.13;5.60;;;19.60;99.90;;;;;;6068139;23;20168;-62
2022/08/22 07:45:02;;;;;;;11.87;5.63;;;19.70;99.90;;;;;;6067882;23;20196;-62
2022/08/22 07:47:45;;;;;;;17.43;6.10;;;19.60;99.90;;;;;;6067947;23;20232;-63
2022/08/22 07:50:24;;;;;;;11.93;5.90;;;19.70;99.90;;;;;;6067761;23;20169;-62
2022/08/22 07:52:57;;;;;;;11.47;6.27;;;19.70;99.90;;;;;;6068075;23;20247;-62
2022/08/22 07:55:28;;;;;;;16.43;6.27;;;19.70;99.90;;;;;;6067839;23;20185;-62
2022/08/22 07:58:00;;;;;;;15.87;6.17;;;19.80;99.90;;;;;;6067348;23;20260;-62
2022/08/22 08:00:33;;;;;;;10.73;5.93;;;19.80;99.90;;;;;;6067717;23;20195;-62
2022/08/22 08:03:04;;;;;;;12.93;6.30;;;19.80;99.90;;;;;;6066790;23;20248;-63
2022/08/22 08:05:36;;;;;;;19.97;6.10;;;19.90;99.90;;;;;;6067750;23;20194;-62
2022/08/22 08:08:08;;;;;;;13.90;6.00;;;20.00;99.90;;;;;;6067667;23;20184;-61
2022/08/22 08:10:44;;;;;;;9.37;5.90;;;20.10;99.90;;;;;;6067736;23;20228;-62
2022/08/22 08:13:22;;;;;;;13.60;5.93;;;20.20;99.90;;;;;;6067589;23;20159;-62
2022/08/22 08:15:52;;;;;;;11.80;6.00;;;20.30;99.90;;;;;;6068447;23;20246;-62
2022/08/22 08:18:24;;;;;;;15.13;6.10;;;20.50;99.90;;;;;;6069418;23;20173;-62
2022/08/22 08:20:57;;;;;;;16.47;6.20;;;20.60;99.90;;;;;;6069299;23;20187;-63
2022/08/22 08:23:28;;;;;;;10.13;6.00;;;20.80;99.90;;;;;;6069441;23;20179;-62
2022/08/22 08:26:06;;;;;;;9.37;5.20;;;20.90;99.90;;;;;;6069263;23;20199;-62
2022/08/22 08:28:41;;;;;;;15.43;5.90;;;21.20;99.90;;;;;;6068755;23;20239;-62
2022/08/22 08:31:16;;;;;;;13.67;5.43;;;21.50;99.90;;;;;;6069134;23;20533;-62
2022/08/22 08:33:47;;;;;;;13.43;5.60;;;21.80;99.90;;;;;;6043763;23;20248;-63
2022/08/22 08:36:34;;;;;;;19.93;5.63;;;22.20;99.90;;;;;;6069148;23;20269;-62
2022/08/22 08:39:14;;;;;;;12.33;5.10;;;22.60;99.90;;;;;;6043816;23;20166;-63
2022/08/22 08:42:14;;;;;;;13.03;5.27;;;23.00;99.90;;;;;;6069362;23;20193;-63
2022/08/22 08:45:20;;;;;;;10.80;4.50;;;23.30;99.90;;;;;;6068959;23;20169;-63
2022/08/22 08:48:06;;;;;;;9.17;4.90;;;23.90;99.90;;;;;;6069113;23;20234;-62
2022/08/22 08:50:58;;;;;;;9.73;4.33;;;24.00;99.90;;;;;;6043769;23;20168;-62
2022/08/22 08:54:20;;;;;;;10.93;4.43;;;24.00;99.90;;;;;;6068812;23;20199;-63
2022/08/22 08:57:03;;;;;;;12.50;5.20;;;24.10;99.90;;;;;;5953391;24;20224;-62
2022/08/22 08:59:44;;;;;;;13.57;5.07;;;24.10;99.90;;;;;;6055201;23;20207;-63
2022/08/22 09:02:28;;;;;;;14.10;4.97;;;24.40;99.90;;;;;;6068463;23;20223;-62
2022/08/22 09:05:46;;;;;;;12.90;4.90;;;25.00;99.90;;;;;;6068982;23;20165;-63
2022/08/22 09:08:41;;;;;;;7.73;4.47;;;25.40;99.90;;;;;;6068491;23;20250;-63
2022/08/22 09:11:46;;;;;;;16.33;4.53;;;25.20;99.90;;;;;;6068105;23;20247;-63
2022/08/22 09:14:36;;;;;;;12.80;4.70;;;25.00;99.90;;;;;;6068132;23;20169;-62
2022/08/22 09:17:30;;;;;;;8.80;4.50;;;25.00;99.90;;;;;;6068538;23;20267;-62
2022/08/22 09:20:45;;;;;;;11.97;4.17;;;24.80;99.90;;;;;;6068570;23;20239;-62
2022/08/22 09:23:48;;;;;;;11.30;4.60;;;24.90;99.90;;;;;;6068835;23;20192;-63
2022/08/22 09:26:29;;;;;;;13.37;3.93;;;25.20;99.90;;;;;;6043204;23;20195;-63
2022/08/22 09:29:07;;;;;;;5.87;3.73;;;25.30;99.90;;;;;;6042708;23;20242;-62
2022/08/22 09:31:44;;;;;;;11.07;4.00;;;25.50;99.90;;;;;;6068986;23;20168;-62
2022/08/22 09:34:27;;;;;;;9.83;3.60;;;25.70;99.90;;;;;;6068770;23;20175;-63
2022/08/22 09:37:10;;;;;;;11.00;3.83;;;26.00;99.90;;;;;;6068509;23;20194;-62
2022/08/22 09:39:50;;;;;;;6.57;3.27;;;26.40;99.90;;;;;;6043157;23;20484;-62
2022/08/22 09:42:24;;;;;;;5.07;3.22;;;27.00;99.90;;;;;;6068156;23;20181;-62
2022/08/22 09:45:19;;;;;;;5.60;2.95;;;27.20;99.90;;;;;;6068239;23;20174;-63
2022/08/22 09:47:57;;;;;;;7.45;3.38;;;27.10;99.90;;;;;;6043025;23;20250;-62
2022/08/22 09:50:48;;;;;;;6.82;3.33;;;27.10;99.90;;;;;;6068363;23;20165;-62
2022/08/22 09:53:46;;;;;;;9.40;3.13;;;27.30;99.90;;;;;;6068457;23;20654;-62
2022/08/22 09:56:22;;;;;;;6.47;3.08;;;27.30;99.90;;;;;;6068623;23;20619;-63
2022/08/22 09:59:01;;;;;;;6.90;2.47;;;27.10;99.90;;;;;;6068442;23;20181;-62
2022/08/22 10:01:38;;;;;;;5.28;2.47;;;27.40;99.90;;;;;;6067862;23;20245;-63
2022/08/22 10:04:40;;;;;;;3.05;2.28;;;27.90;99.90;;;;;;6042676;23;20179;-63
2022/08/22 10:07:40;;;;;;;5.95;2.08;;;28.10;99.90;;;;;;6068182;23;20171;-63
2022/08/22 10:10:34;;;;;;;6.90;2.50;;;28.70;99.90;;;;;;6067745;23;20200;-62
2022/08/22 10:13:15;;;;;;;3.88;2.10;;;29.10;99.90;;;;;;6067854;23;20769;-63
2022/08/22 10:15:51;;;;;;;3.70;2.30;;;29.50;99.90;;;;;;6042120;23;20539;-63
2022/08/22 10:18:29;;;;;;;4.68;1.80;;;29.80;99.90;;;;;;6067522;23;20191;-62
2022/08/22 10:21:09;;;;;;;6.63;2.15;;;29.90;99.90;;;;;;6018822;23;20172;-62
2022/08/22 10:23:44;;;;;;;2.20;1.83;;;29.90;99.90;;;;;;6067570;23;20172;-63
2022/08/22 10:26:28;;;;;;;3.92;2.13;;;30.10;99.90;;;;;;6067277;23;20195;-63
2022/08/22 10:29:07;;;;;;;3.42;2.00;;;30.50;99.90;;;;;;6067261;23;20184;-62
2022/08/22 10:31:41;;;;;;;3.88;2.13;;;30.50;99.90;;;;;;6067500;23;20263;-62
2022/08/22 10:34:30;;;;;;;3.45;1.92;;;30.60;99.90;;;;;;6067321;23;20609;-63
2022/08/22 10:37:10;;;;;;;6.68;1.80;;;30.80;99.90;;;;;;6067476;23;20188;-63
2022/08/22 10:39:47;;;;;;;6.65;2.20;;;30.50;99.90;;;;;;6042390;23;20176;-63
2022/08/22 10:42:26;;;;;;;6.20;2.30;;;30.80;99.90;;;;;;6067537;23;20168;-63
2022/08/22 10:45:19;;;;;;;6.47;2.20;;;30.30;99.90;;;;;;6067530;23;20182;-63
2022/08/22 10:48:35;;;;;;;5.20;2.28;;;30.20;99.90;;;;;;6067317;23;20168;-62
2022/08/22 10:51:15;;;;;;;5.72;2.33;;;29.50;99.90;;;;;;6067371;23;20173;-62
2022/08/22 10:54:01;;;;;;;4.43;2.55;;;29.60;99.90;;;;;;6042216;23;20215;-62
2022/08/22 10:56:37;;;;;;;5.70;2.45;;;29.30;99.90;;;;;;6018924;23;20225;-62
2022/08/22 10:59:25;;;;;;;5.05;2.10;;;28.90;99.90;;;;;;6042145;23;20534;-63
2022/08/22 11:02:07;;;;;;;5.18;2.22;;;28.50;99.90;;;;;;6067799;23;20228;-63
2022/08/22 11:04:57;;;;;;;3.88;2.25;;;28.20;99.90;;;;;;6067562;23;20165;-62
2022/08/22 11:07:45;;;;;;;3.60;2.17;;;28.20;99.90;;;;;;6042550;23;20167;-62
2022/08/22 11:10:26;;;;;;;4.65;2.30;;;28.20;99.90;;;;;;6067824;23;20513;-61
2022/08/22 11:13:12;;;;;;;7.75;2.30;;;28.40;99.90;;;;;;6067505;23;20166;-62
2022/08/22 11:15:59;;;;;;;4.35;2.40;;;28.70;99.90;;;;;;6067647;23;20189;-62
2022/08/22 11:18:49;;;;;;;9.30;3.00;;;28.90;99.90;;;;;;6067331;23;20540;-62
2022/08/22 11:21:41;;;;;;;13.15;2.92;;;29.10;99.90;;;;;;6067852;23;20234;-62
2022/08/22 11:24:38;;;;;;;7.07;2.55;;;29.50;99.90;;;;;;6067260;23;20646;-62
2022/08/22 11:27:33;;;;;;;5.65;2.30;;;29.60;99.90;;;;;;6066826;23;20242;-62
2022/08/22 11:30:12;;;;;;;4.50;2.47;;;30.00;99.90;;;;;;6067522;23;20185;-62
2022/08/22 11:33:15;;;;;;;4.03;1.70;;;30.00;99.90;;;;;;6066886;23;20169;-62
2022/08/22 11:35:51;;;;;;;5.60;2.38;;;29.90;99.90;;;;;;6067835;23;20167;-62
2022/08/22 11:38:33;;;;;;;4.03;2.03;;;29.70;99.90;;;;;;6067401;23;20191;-62
2022/08/22 11:41:09;;;;;;;3.22;2.30;;;29.40;99.90;;;;;;6042089;23;20227;-62
2022/08/22 11:43:48;;;;;;;4.10;2.38;;;29.80;99.90;;;;;;6067156;23;20250;-62
2022/08/22 11:46:27;;;;;;;6.78;2.40;;;29.50;99.90;;;;;;6067627;23;20174;-62
2022/08/22 11:49:15;;;;;;;4.03;2.10;;;29.50;99.90;;;;;;6042038;23;20198;-63
2022/08/22 11:52:09;;;;;;;2.63;1.80;;;29.50;99.90;;;;;;6068583;23;20171;-62
2022/08/22 11:55:04;;;;;;;6.05;2.00;;;29.50;99.90;;;;;;6069479;23;20234;-62
2022/08/22 11:57:37;;;;;;;3.95;1.80;;;29.70;99.90;;;;;;6067090;23;20286;-61
2022/08/22 12:00:22;;;;;;;5.13;2.25;;;30.40;99.90;;;;;;6069065;23;20357;-62
2022/08/22 12:03:31;;;;;;;3.15;2.00;;;30.60;99.20;;;;;;6068731;23;20239;-62
2022/08/22 12:06:08;;;;;;;2.63;2.00;;;30.40;99.50;;;;;;6068868;23;20758;-62
2022/08/22 12:09:12;;;;;;;3.92;2.00;;;30.40;99.60;;;;;;6068768;23;20243;-62
2022/08/22 12:11:57;;;;;;;3.53;1.80;;;30.20;99.00;;;;;;6067939;23;20195;-62
2022/08/22 12:14:34;;;;;;;3.78;1.92;;;29.80;99.80;;;;;;6067571;23;20174;-61
2022/08/22 12:17:34;;;;;;;1.98;1.88;;;30.20;99.90;;;;;;6068344;23;20206;-61
2022/08/22 12:20:53;;;;;;;1.67;1.58;;;30.40;99.10;;;;;;6067482;23;20173;-62
2022/08/22 12:23:51;;;;;;;3.00;2.17;;;30.20;98.90;;;;;;6067791;23;20183;-62
2022/08/22 12:26:30;;;;;;;5.38;1.80;;;29.90;99.90;;;;;;6068639;23;20195;-62
2022/08/22 12:29:12;;;;;;;2.40;1.90;;;30.10;99.30;;;;;;6068032;23;20688;-62
2022/08/22 12:32:18;;;;;;;3.42;2.05;;;30.00;99.00;;;;;;6069124;23;20254;-62
2022/08/22 12:35:11;;;;;;;3.90;1.88;;;29.90;98.80;;;;;;6068653;23;20169;-62
2022/08/22 12:37:49;;;;;;;3.53;1.83;;;30.10;98.70;;;;;;6043808;23;20193;-61
2022/08/22 12:40:36;;;;;;;1.90;1.80;;;30.10;99.40;;;;;;6068418;23;20169;-62
2022/08/22 12:43:40;;;;;;;3.63;2.10;;;30.20;99.20;;;;;;6069092;23;20170;-61
2022/08/22 12:46:17;;;;;;;3.25;1.90;;;30.10;99.10;;;;;;6043258;23;20212;-62
2022/08/22 12:49:02;;;;;;;2.50;2.08;;;29.70;99.10;;;;;;6043341;23;20163;-61
2022/08/22 12:51:42;;;;;;;3.67;2.00;;;29.90;99.90;;;;;;6068685;23;20600;-62
2022/08/22 12:54:46;;;;;;;6.75;2.20;;;29.90;99.60;;;;;;6068532;23;20201;-62
2022/08/22 12:57:25;;;;;;;3.80;2.20;;;29.90;99.90;;;;;;6068697;23;20172;-62
2022/08/22 12:59:59;;;;;;;2.70;2.05;;;30.00;99.90;;;;;;6068314;23;20200;-62
2022/08/22 13:02:32;;;;;;;4.28;2.00;;;30.00;99.90;;;;;;6068162;23;20225;-61
2022/08/22 13:05:09;;;;;;;7.65;3.38;;;29.80;99.80;;;;;;6068705;23;20499;-61
2022/08/22 13:07:40;;;;;;;5.60;2.30;;;29.90;99.30;;;;;;6068477;23;20171;-62
2022/08/22 13:10:37;;;;;;;2.13;1.90;;;29.60;99.90;;;;;;6068438;23;20284;-61
2022/08/22 13:13:11;;;;;;;6.18;2.20;;;29.80;99.60;;;;;;6069149;23;20465;-62
2022/08/22 13:15:46;;;;;;;2.28;2.08;;;29.90;99.30;;;;;;6068364;23;20199;-61
2022/08/22 13:18:24;;;;;;;3.30;2.10;;;29.70;99.90;;;;;;6068075;23;20656;-61
2022/08/22 13:21:01;;;;;;;2.78;2.05;;;29.60;99.80;;;;;;6068210;23;20176;-62
2022/08/22 13:23:35;;;;;;;5.68;2.30;;;29.30;99.90;;;;;;6068277;23;20216;-61
2022/08/22 13:26:16;;;;;;;5.78;2.30;;;29.00;99.90;;;;;;6068423;23;20515;-62
2022/08/22 13:29:05;;;;;;;3.17;2.17;;;28.90;99.60;;;;;;6068405;23;20510;-61
2022/08/22 13:31:58;;;;;;;4.82;2.30;;;29.10;99.90;;;;;;6043056;23;20182;-62
2022/08/22 13:34:36;;;;;;;3.65;2.30;;;29.40;99.40;;;;;;6067723;23;20174;-61
2022/08/22 13:37:14;;;;;;;5.75;2.22;;;29.70;99.90;;;;;;6042913;23;20197;-62
2022/08/22 13:39:46;;;;;;;6.40;2.22;;;29.90;99.90;;;;;;6068320;23;20190;-61
2022/08/22 13:42:20;;;;;;;2.58;1.88;;;30.10;99.60;;;;;;6068519;23;20228;-62
2022/08/22 13:45:02;;;;;;;4.25;2.13;;;30.20;99.70;;;;;;6042700;23;20175;-62
2022/08/22 13:47:36;;;;;;;6.25;2.05;;;30.60;99.60;;;;;;6042955;23;20171;-62
2022/08/22 13:50:12;;;;;;;3.47;2.13;;;30.60;99.40;;;;;;6041993;23;20160;-62
2022/08/22 13:52:46;;;;;;;6.88;2.20;;;30.30;99.30;;;;;;6068250;23;20504;-61
2022/08/22 13:55:28;;;;;;;3.33;2.08;;;30.20;99.60;;;;;;6067627;23;20246;-62
2022/08/22 13:58:05;;;;;;;4.97;2.10;;;30.10;99.20;;;;;;6067968;23;20153;-62
2022/08/22 14:01:02;;;;;;;5.30;1.88;;;30.20;99.70;;;;;;6067655;23;20203;-62
2022/08/22 14:03:39;;;;;;;6.72;2.10;;;30.70;99.90;;;;;;6067671;23;20173;-62